M/V MiSS Lillie — WDH5807 — position and weather

sailwx.info

Track history (hours):
 
Tides and Currents Weather Stations Pressure Air Temp Water Temp Dewpoint Dewpoint Depression Visibility Wind Speed Wind Dir Waves Ship Positions

M/V MiSS Lillie

Owner: Louisiana Marine Operators LLC., Broussard, LA. More information available from US FCC via Universal Licensing System and Coast Guard Vessel Documentation Center.

Last reported at 2018-May-24 17:17 UTC. Time now 2018-Jun-20 09:13 UTC.
Position N 29°49' W 090°04'.
Warning: this ship's position is 26 days out of date.

Length 24 m; draft 3 m.

Type: Towing. MMSI: 367631680.

Date/timePositionNaut miles runAvg speedWind from/ knotsBaromVisibWave heightAir tempDewpointWater temp
2018-May-24 17:17N 29°49' W 090°04'31 2.7
2018-May-24 05:41N 29°35' W 090°36'1 5.0
2018-May-24 05:30N 29°35' W 090°37'3 5.3
2018-May-24 05:01N 29°36' W 090°39'3 5.2
2018-May-24 04:30N 29°37' W 090°42'2 4.3
2018-May-24 04:01N 29°35' W 090°43'2 3.8
2018-May-24 03:30N 29°34' W 090°45'2 4.5
2018-May-24 03:00N 29°32' W 090°47'  
2018-May-17 10:45N 32°07' W 091°06'4 7.4
2018-May-17 10:12N 32°07' W 091°02'2 8.4
2018-May-17 10:00N 32°09' W 091°00'4 9.2
2018-May-17 09:30N 32°13' W 090°59'4 8.6
2018-May-17 09:00N 32°17' W 090°57'4 8.2
2018-May-17 08:30N 32°20' W 090°54'4 8.9
2018-May-17 08:00N 32°21' W 090°59'4 7.6
2018-May-17 07:30N 32°25' W 090°60'  
Track history (hours):
 
Tides and Currents Weather Stations Pressure Air Temp Water Temp Dewpoint Dewpoint Depression Visibility Wind Speed Wind Dir Waves Ship Positions

M/V MiSS Lillie

Owner: Louisiana Marine Operators LLC., Broussard, LA. More information available from US FCC via Universal Licensing System and Coast Guard Vessel Documentation Center.

Last reported at 2018-May-24 17:17 UTC. Time now 2018-Jun-20 09:13 UTC.
Position N 29°49' W 090°04'.
Warning: this ship's position is 26 days out of date.

Length 24 m; draft 3 m.

Type: Towing. MMSI: 367631680.

Date/timePositionNaut miles runAvg speedWind from/ knotsBaromVisibWave heightAir tempDewpointWater temp
2018-May-24 17:17N 29°49' W 090°04'31 2.7
2018-May-24 05:41N 29°35' W 090°36'1 5.0
2018-May-24 05:30N 29°35' W 090°37'3 5.3
2018-May-24 05:01N 29°36' W 090°39'3 5.2
2018-May-24 04:30N 29°37' W 090°42'2 4.3
2018-May-24 04:01N 29°35' W 090°43'2 3.8
2018-May-24 03:30N 29°34' W 090°45'2 4.5
2018-May-24 03:00N 29°32' W 090°47'  
2018-May-17 10:45N 32°07' W 091°06'4 7.4
2018-May-17 10:12N 32°07' W 091°02'2 8.4
2018-May-17 10:00N 32°09' W 091°00'4 9.2
2018-May-17 09:30N 32°13' W 090°59'4 8.6
2018-May-17 09:00N 32°17' W 090°57'4 8.2
2018-May-17 08:30N 32°20' W 090°54'4 8.9
2018-May-17 08:00N 32°21' W 090°59'4 7.6
2018-May-17 07:30N 32°25' W 090°60'  

Dump ship's entire track history